Terminal Aerodrome Forecast
Issued by NWS

Home | Current Version | Previous Version | Text Only | Print | Product List | Glossary On
Versions: 1 2 3 4 5 6 7 8 9 10 11 12 13 14 15 16 17 18 19 20 21 22
837
FTUS43 KLSX 131127
TAFUIN
TAF
KUIN 131127Z 1312/1412 34006KT P6SM BKN150
     FM131800 VRB03KT P6SM BKN100
     FM140300 12007KT P6SM OVC060
     FM140500 13009KT 3SM -SN OVC035
     FM141000 13013KT 1SM -SN OVC030=

USA.gov is the U.S. government's official web portal to all federal, state and local government web resources and services.